• Join FlightAware (Why Join?)
  • Login
  • US Flag 
 
06:07PM EST


 

Airport Tracker/Info


-or-


 

Live Flight TrackerFlight Track Log ✈ N201LH ✈ 04-May-2013 ✈ KBKL - KHYX

Flight Track Log - Related Links

Times and Time Zones

All times are in EDT time to prevent confusion due to time zone crossing. See the N201LH flight status page for this flight to view local times or setup timezone preferences in your user account.

Time Position Orientation Groundspeed Altitude Reporting Facility
EDT Latitude Longitude Course Direction KTS MPH feet Rate Location/Type
07:15PM 41.5211 -81.6786 343° North 75 86 1,000  Level Cleveland Center
07:16PM 41.5419 -81.6872 343° North 103 119 1,700 780 Climbing Cleveland Center
07:17PM 41.5708 -81.7044 336° Northwest 114 131 2,600 660 Climbing Cleveland Center
07:18PM 41.5914 -81.7353 312° West 123 142 3,100 540 Climbing Cleveland Center
07:19PM 41.6056 -81.7828 292° West 139 160 3,700 540 Climbing Cleveland Center
07:20PM 41.6175 -81.8275 290° West 130 150 4,200 540 Climbing Cleveland Center
07:22PM 41.6483 -81.8725 313° West 152 175 5,000 540 Climbing Cleveland Center
07:23PM 41.6731 -81.9092 312° West 138 159 5,500 480 Climbing Cleveland Center
07:24PM 41.6975 -81.9486 310° West 138 159 6,000 240 Climbing Cleveland Center
07:25PM 41.7283 -81.9936 313° West 138 159 6,000  Level Cleveland Center
07:26PM 41.7589 -82.0472 307° West 162 186 6,000  Level Cleveland Center
07:27PM 41.7894 -82.0925 312° West 168 193 6,000  Level Cleveland Center
07:28PM 41.8181 -82.1406 309° West 168 193 6,000  Level Cleveland Center
07:29PM 41.8467 -82.1886 309° West 168 193 6,000  Level Cleveland Center
07:30PM 41.8792 -82.2425 309° West 174 200 6,000  Level Cleveland Center
07:30PM 41.9100 -82.2794 318° Northwest 174 200 6,000  Level Cleveland Center
07:31PM 41.9119 -82.2881 287° West 174 200 6,000  Level Cleveland Center
07:31PM 41.9364 -82.3278 310° West 174 200 6,000  Level Cleveland Center
07:32PM 41.9444 -82.3419 307° West 174 200 6,000  Level Cleveland Center
07:32PM 41.9708 -82.3789 314° West 173 199 6,000  Level Cleveland Center
07:33PM 41.9728 -82.3875 287° West 179 206 6,000 -120 Level Cleveland Center
07:33PM 42.0014 -82.4300 312° West 174 200 5,900 -120 Descending Cleveland Center
07:34PM 42.0053 -82.4386 301° West 179 206 5,900 60 Level Cleveland Center
07:35PM 42.0358 -82.4897 309° West 179 206 6,000  Climbing Cleveland Center
07:36PM 42.0664 -82.5383 310° West 179 206 6,000  Level Cleveland Center
07:37PM 42.0947 -82.5811 312° West 174 200 6,000  Level Cleveland Center
07:38PM 42.1272 -82.6353 309° West 173 199 6,000  Level Cleveland Center
07:38PM 42.1556 -82.6811 310° West 174 200 6,000  Level Cleveland Center
07:39PM 42.1575 -82.6867 295° West 179 206 6,000  Level Cleveland Center
07:40PM 42.1958 -82.7497 309° West 172 198 6,000  Level Cleveland Center
07:41PM 42.2283 -82.7983 312° West 173 199 6,000 -60 Level Cleveland Center
07:42PM 42.2586 -82.8500 308° West 175 201 5,900  Descending Cleveland Center
07:43PM 42.2889 -82.8933 313° West 174 200 6,000  Climbing Cleveland Center
07:44PM 42.3319 -82.9314 327° Northwest 175 201 6,000  Level Cleveland Center
07:45PM 42.3650 -82.9494 338° Northwest 176 203 6,000  Level Cleveland Center
07:46PM 42.4103 -82.9764 336° Northwest 176 203 6,000  Level Cleveland Center
07:47PM 42.4553 -83.0203 324° Northwest 179 206 6,000  Level Cleveland Center
07:48PM 42.4983 -83.0558 329° Northwest 176 203 6,000  Level Cleveland Center
07:49PM 42.5350 -83.0911 325° Northwest 176 203 6,000  Level Cleveland Center
07:50PM 42.5822 -83.1294 329° Northwest 176 203 6,000  Level Cleveland Center
07:51PM 42.6211 -83.1567 333° Northwest 173 199 6,000  Level Cleveland Center
07:52PM 42.6578 -83.1892 327° Northwest 176 203 6,000  Level Cleveland Center
07:53PM 42.7047 -83.2333 325° Northwest 174 200 6,000  Level Cleveland Center
07:54PM 42.7539 -83.2753 328° Northwest 174 200 6,000  Level Cleveland Center
07:55PM 42.8050 -83.3142 331° Northwest 176 203 6,000  Level Cleveland Center
07:56PM 42.8336 -83.3381 329° Northwest 177 204 6,000  Level Cleveland Center
07:57PM 42.8744 -83.3739 327° Northwest 176 203 6,000  Level Cleveland Center
07:58PM 42.9111 -83.4067 327° Northwest 176 203 6,000  Level Cleveland Center
07:59PM 42.9519 -83.4453 325° Northwest 174 200 6,000  Level Cleveland Center
08:00PM 42.9906 -83.4814 326° Northwest 172 198 6,000  Level Cleveland Center
08:01PM 43.0294 -83.5144 328° Northwest 173 199 6,000  Level Cleveland Center
08:02PM 43.0664 -83.5417 332° Northwest 173 199 6,000 -60 Level Cleveland Center
08:03PM 43.1272 -83.5986 326° Northwest 170 196 5,900 -240 Descending Cleveland Center
08:04PM 43.1558 -83.6228 328° Northwest 179 206 5,500 -600 Descending Cleveland Center
08:05PM 43.2150 -83.6711 329° Northwest 182 209 4,700 -660 Descending Cleveland Center
08:06PM 43.2394 -83.6925 327° Northwest 180 207 4,300 -720 Descending Cleveland Center
08:07PM 43.2903 -83.7406 325° Northwest 168 193 3,400 -720 Descending Cleveland Center